sensor_id;sensor_type;location;lat;lon;timestamp;temperature;humidity
21487;DHT22;10905;50.822;4.336;2023-05-01T00:00:01;15.50;99.90
21487;DHT22;10905;50.822;4.336;2023-05-01T00:02:28;15.40;99.90
21487;DHT22;10905;50.822;4.336;2023-05-01T00:04:55;15.40;99.90
21487;DHT22;10905;50.822;4.336;2023-05-01T00:07:20;15.40;99.90
21487;DHT22;10905;50.822;4.336;2023-05-01T00:09:46;15.50;99.90
21487;DHT22;10905;50.822;4.336;2023-05-01T00:12:12;15.60;99.90
21487;DHT22;10905;50.822;4.336;2023-05-01T00:14:37;15.50;99.90
21487;DHT22;10905;50.822;4.336;2023-05-01T00:17:03;15.40;99.90
21487;DHT22;10905;50.822;4.336;2023-05-01T00:19:28;15.40;99.90
21487;DHT22;10905;50.822;4.336;2023-05-01T00:21:54;15.40;99.90
21487;DHT22;10905;50.822;4.336;2023-05-01T00:24:20;15.40;99.90
21487;DHT22;10905;50.822;4.336;2023-05-01T00:26:46;15.40;99.90
21487;DHT22;10905;50.822;4.336;2023-05-01T00:29:11;15.40;99.90
21487;DHT22;10905;50.822;4.336;2023-05-01T00:31:37;15.50;99.90
21487;DHT22;10905;50.822;4.336;2023-05-01T00:34:03;15.50;99.90
21487;DHT22;10905;50.822;4.336;2023-05-01T00:36:29;15.50;99.90
21487;DHT22;10905;50.822;4.336;2023-05-01T00:38:56;15.50;99.90
21487;DHT22;10905;50.822;4.336;2023-05-01T00:41:21;15.50;99.90
21487;DHT22;10905;50.822;4.336;2023-05-01T00:43:47;15.30;99.90
21487;DHT22;10905;50.822;4.336;2023-05-01T00:46:12;15.30;99.90
21487;DHT22;10905;50.822;4.336;2023-05-01T00:48:38;15.30;99.90
21487;DHT22;10905;50.822;4.336;2023-05-01T00:51:04;15.20;99.90
21487;DHT22;10905;50.822;4.336;2023-05-01T00:53:30;15.30;99.90
21487;DHT22;10905;50.822;4.336;2023-05-01T00:55:57;15.20;99.90
21487;DHT22;10905;50.822;4.336;2023-05-01T00:58:22;15.20;99.90
21487;DHT22;10905;50.822;4.336;2023-05-01T01:00:48;15.10;99.90
21487;DHT22;10905;50.822;4.336;2023-05-01T01:03:14;15.10;99.90
21487;DHT22;10905;50.822;4.336;2023-05-01T01:05:41;15.10;99.90
21487;DHT22;10905;50.822;4.336;2023-05-01T01:08:14;15.20;99.90
21487;DHT22;10905;50.822;4.336;2023-05-01T01:10:52;15.00;99.90
21487;DHT22;10905;50.822;4.336;2023-05-01T01:16:11;14.90;99.90
21487;DHT22;10905;50.822;4.336;2023-05-01T01:19:29;14.90;99.90
21487;DHT22;10905;50.822;4.336;2023-05-01T01:21:31;14.90;99.90
21487;DHT22;10905;50.822;4.336;2023-05-01T01:29:24;15.10;99.90
21487;DHT22;10905;50.822;4.336;2023-05-01T01:32:10;15.00;99.90
21487;DHT22;10905;50.822;4.336;2023-05-01T01:34:48;14.90;99.90
21487;DHT22;10905;50.822;4.336;2023-05-01T01:42:12;14.90;99.90
21487;DHT22;10905;50.822;4.336;2023-05-01T01:44:53;15.00;99.90
21487;DHT22;10905;50.822;4.336;2023-05-01T01:47:19;14.90;99.90
21487;DHT22;10905;50.822;4.336;2023-05-01T01:49:47;15.00;99.90
21487;DHT22;10905;50.822;4.336;2023-05-01T01:52:14;15.00;99.90
21487;DHT22;10905;50.822;4.336;2023-05-01T01:54:42;15.00;99.90
21487;DHT22;10905;50.822;4.336;2023-05-01T01:57:08;14.90;99.90
21487;DHT22;10905;50.822;4.336;2023-05-01T01:59:35;15.00;99.90
21487;DHT22;10905;50.822;4.336;2023-05-01T02:02:01;15.10;99.90
21487;DHT22;10905;50.822;4.336;2023-05-01T02:04:27;15.00;99.90
21487;DHT22;10905;50.822;4.336;2023-05-01T02:06:54;15.00;99.90
21487;DHT22;10905;50.822;4.336;2023-05-01T02:09:21;14.90;99.90
21487;DHT22;10905;50.822;4.336;2023-05-01T02:11:47;14.90;99.90
21487;DHT22;10905;50.822;4.336;2023-05-01T02:14:14;14.90;99.90
21487;DHT22;10905;50.822;4.336;2023-05-01T02:16:40;14.90;99.90
21487;DHT22;10905;50.822;4.336;2023-05-01T02:19:06;15.00;99.90
21487;DHT22;10905;50.822;4.336;2023-05-01T02:21:35;15.00;99.90
21487;DHT22;10905;50.822;4.336;2023-05-01T02:24:01;15.10;99.90
21487;DHT22;10905;50.822;4.336;2023-05-01T02:26:29;15.00;99.90
21487;DHT22;10905;50.822;4.336;2023-05-01T02:28:55;14.90;99.90
21487;DHT22;10905;50.822;4.336;2023-05-01T02:31:21;15.00;99.90
21487;DHT22;10905;50.822;4.336;2023-05-01T02:33:47;14.90;99.90
21487;DHT22;10905;50.822;4.336;2023-05-01T02:36:12;14.90;99.90
21487;DHT22;10905;50.822;4.336;2023-05-01T02:38:38;14.80;99.90
21487;DHT22;10905;50.822;4.336;2023-05-01T02:41:03;14.90;99.90
21487;DHT22;10905;50.822;4.336;2023-05-01T02:43:31;14.90;99.90
21487;DHT22;10905;50.822;4.336;2023-05-01T02:45:57;14.90;99.90
21487;DHT22;10905;50.822;4.336;2023-05-01T02:48:24;14.80;99.90
21487;DHT22;10905;50.822;4.336;2023-05-01T02:50:52;14.80;99.90
21487;DHT22;10905;50.822;4.336;2023-05-01T02:53:18;14.90;99.90
21487;DHT22;10905;50.822;4.336;2023-05-01T02:55:44;14.80;99.90
21487;DHT22;10905;50.822;4.336;2023-05-01T02:58:13;14.90;99.90
21487;DHT22;10905;50.822;4.336;2023-05-01T03:00:39;14.90;99.90
21487;DHT22;10905;50.822;4.336;2023-05-01T03:03:05;14.90;99.90
21487;DHT22;10905;50.822;4.336;2023-05-01T03:05:30;14.90;99.90
21487;DHT22;10905;50.822;4.336;2023-05-01T03:07:56;14.80;99.90
21487;DHT22;10905;50.822;4.336;2023-05-01T03:10:21;14.80;99.90
21487;DHT22;10905;50.822;4.336;2023-05-01T03:12:47;14.80;99.90
21487;DHT22;10905;50.822;4.336;2023-05-01T03:15:13;14.80;99.90
21487;DHT22;10905;50.822;4.336;2023-05-01T03:17:38;14.70;99.90
21487;DHT22;10905;50.822;4.336;2023-05-01T03:20:04;14.50;99.90
21487;DHT22;10905;50.822;4.336;2023-05-01T03:22:30;14.50;99.90
21487;DHT22;10905;50.822;4.336;2023-05-01T03:24:57;14.50;99.90
21487;DHT22;10905;50.822;4.336;2023-05-01T03:27:23;14.50;99.90
21487;DHT22;10905;50.822;4.336;2023-05-01T03:29:48;14.50;99.90
21487;DHT22;10905;50.822;4.336;2023-05-01T03:32:14;14.50;99.90
21487;DHT22;10905;50.822;4.336;2023-05-01T03:34:41;14.60;99.90
21487;DHT22;10905;50.822;4.336;2023-05-01T03:37:07;14.60;99.90
21487;DHT22;10905;50.822;4.336;2023-05-01T03:39:33;14.70;99.90
21487;DHT22;10905;50.822;4.336;2023-05-01T03:41:58;14.70;99.90
21487;DHT22;10905;50.822;4.336;2023-05-01T03:44:24;14.60;99.90
21487;DHT22;10905;50.822;4.336;2023-05-01T03:46:49;14.60;99.90
21487;DHT22;10905;50.822;4.336;2023-05-01T03:49:15;14.50;99.90
21487;DHT22;10905;50.822;4.336;2023-05-01T03:51:41;14.50;99.90
21487;DHT22;10905;50.822;4.336;2023-05-01T03:54:06;14.50;99.90
21487;DHT22;10905;50.822;4.336;2023-05-01T03:56:32;14.40;99.90
21487;DHT22;10905;50.822;4.336;2023-05-01T03:59:00;14.50;99.90
21487;DHT22;10905;50.822;4.336;2023-05-01T04:01:25;14.50;99.90
21487;DHT22;10905;50.822;4.336;2023-05-01T04:03:51;14.50;99.90
21487;DHT22;10905;50.822;4.336;2023-05-01T04:06:17;14.50;99.90
21487;DHT22;10905;50.822;4.336;2023-05-01T04:08:43;14.50;99.90
21487;DHT22;10905;50.822;4.336;2023-05-01T04:11:08;14.60;99.90
21487;DHT22;10905;50.822;4.336;2023-05-01T04:13:35;14.50;99.90
21487;DHT22;10905;50.822;4.336;2023-05-01T04:16:00;14.50;99.90
21487;DHT22;10905;50.822;4.336;2023-05-01T04:18:26;14.50;99.90
21487;DHT22;10905;50.822;4.336;2023-05-01T04:20:52;14.50;99.90
21487;DHT22;10905;50.822;4.336;2023-05-01T04:23:17;14.40;99.90
21487;DHT22;10905;50.822;4.336;2023-05-01T04:25:43;14.30;99.90
21487;DHT22;10905;50.822;4.336;2023-05-01T04:28:11;14.20;99.90
21487;DHT22;10905;50.822;4.336;2023-05-01T04:30:37;14.20;99.90
21487;DHT22;10905;50.822;4.336;2023-05-01T04:33:03;14.30;99.90
21487;DHT22;10905;50.822;4.336;2023-05-01T04:35:38;14.30;99.90
21487;DHT22;10905;50.822;4.336;2023-05-01T04:38:04;14.20;99.90
21487;DHT22;10905;50.822;4.336;2023-05-01T04:40:30;14.10;99.90
21487;DHT22;10905;50.822;4.336;2023-05-01T04:42:56;14.10;99.90
21487;DHT22;10905;50.822;4.336;2023-05-01T04:45:21;14.10;99.90
21487;DHT22;10905;50.822;4.336;2023-05-01T04:47:47;14.20;99.90
21487;DHT22;10905;50.822;4.336;2023-05-01T04:50:12;14.20;99.90
21487;DHT22;10905;50.822;4.336;2023-05-01T04:52:38;14.10;99.90
21487;DHT22;10905;50.822;4.336;2023-05-01T04:55:04;14.10;99.90
21487;DHT22;10905;50.822;4.336;2023-05-01T04:57:29;14.10;99.90
21487;DHT22;10905;50.822;4.336;2023-05-01T04:59:55;14.20;99.90
21487;DHT22;10905;50.822;4.336;2023-05-01T05:02:20;14.10;99.90
21487;DHT22;10905;50.822;4.336;2023-05-01T05:04:46;14.10;99.90
21487;DHT22;10905;50.822;4.336;2023-05-01T05:07:11;14.20;99.90
21487;DHT22;10905;50.822;4.336;2023-05-01T05:09:37;14.20;99.90
21487;DHT22;10905;50.822;4.336;2023-05-01T05:12:03;14.20;99.90
21487;DHT22;10905;50.822;4.336;2023-05-01T05:14:29;14.30;99.90
21487;DHT22;10905;50.822;4.336;2023-05-01T05:16:55;14.30;99.90
21487;DHT22;10905;50.822;4.336;2023-05-01T05:19:20;14.30;99.90
21487;DHT22;10905;50.822;4.336;2023-05-01T05:21:46;14.30;99.90
21487;DHT22;10905;50.822;4.336;2023-05-01T05:24:12;14.30;99.90
21487;DHT22;10905;50.822;4.336;2023-05-01T05:26:37;14.40;99.90
21487;DHT22;10905;50.822;4.336;2023-05-01T05:29:03;14.40;99.90
21487;DHT22;10905;50.822;4.336;2023-05-01T05:31:28;14.40;99.90
21487;DHT22;10905;50.822;4.336;2023-05-01T05:33:54;14.40;99.90
21487;DHT22;10905;50.822;4.336;2023-05-01T05:36:20;14.40;99.90
21487;DHT22;10905;50.822;4.336;2023-05-01T05:38:45;14.50;99.90
21487;DHT22;10905;50.822;4.336;2023-05-01T05:41:11;14.40;99.90
21487;DHT22;10905;50.822;4.336;2023-05-01T05:43:37;14.50;99.90
21487;DHT22;10905;50.822;4.336;2023-05-01T05:46:02;14.40;99.90
21487;DHT22;10905;50.822;4.336;2023-05-01T05:48:28;14.50;99.90
21487;DHT22;10905;50.822;4.336;2023-05-01T05:50:53;14.60;99.90
21487;DHT22;10905;50.822;4.336;2023-05-01T05:53:19;14.50;99.90
21487;DHT22;10905;50.822;4.336;2023-05-01T05:55:47;14.50;99.90
21487;DHT22;10905;50.822;4.336;2023-05-01T05:58:13;14.50;99.90
21487;DHT22;10905;50.822;4.336;2023-05-01T06:00:47;14.40;99.90
21487;DHT22;10905;50.822;4.336;2023-05-01T06:03:12;14.50;99.90
21487;DHT22;10905;50.822;4.336;2023-05-01T06:05:38;14.50;99.90
21487;DHT22;10905;50.822;4.336;2023-05-01T06:08:04;14.50;99.90
21487;DHT22;10905;50.822;4.336;2023-05-01T06:10:29;14.60;99.90
21487;DHT22;10905;50.822;4.336;2023-05-01T06:12:55;14.60;99.90
21487;DHT22;10905;50.822;4.336;2023-05-01T06:15:21;14.70;99.90
21487;DHT22;10905;50.822;4.336;2023-05-01T06:17:46;14.80;99.90
21487;DHT22;10905;50.822;4.336;2023-05-01T06:20:12;14.80;99.90
21487;DHT22;10905;50.822;4.336;2023-05-01T06:22:38;14.90;99.90
21487;DHT22;10905;50.822;4.336;2023-05-01T06:25:04;15.00;99.90
21487;DHT22;10905;50.822;4.336;2023-05-01T06:27:30;15.20;99.90
21487;DHT22;10905;50.822;4.336;2023-05-01T06:29:56;15.30;99.90
21487;DHT22;10905;50.822;4.336;2023-05-01T06:32:21;15.60;99.90
21487;DHT22;10905;50.822;4.336;2023-05-01T06:34:47;15.70;99.90
21487;DHT22;10905;50.822;4.336;2023-05-01T06:37:13;15.80;99.90
21487;DHT22;10905;50.822;4.336;2023-05-01T06:39:38;15.80;99.90
21487;DHT22;10905;50.822;4.336;2023-05-01T06:42:04;15.80;99.90
21487;DHT22;10905;50.822;4.336;2023-05-01T06:44:29;15.90;99.90
21487;DHT22;10905;50.822;4.336;2023-05-01T06:46:55;16.00;99.90
21487;DHT22;10905;50.822;4.336;2023-05-01T06:49:21;16.10;99.90
21487;DHT22;10905;50.822;4.336;2023-05-01T06:51:47;16.20;99.90
21487;DHT22;10905;50.822;4.336;2023-05-01T06:54:12;16.20;99.90
21487;DHT22;10905;50.822;4.336;2023-05-01T06:56:38;16.10;99.90
21487;DHT22;10905;50.822;4.336;2023-05-01T06:59:04;16.10;99.90
21487;DHT22;10905;50.822;4.336;2023-05-01T07:01:30;16.20;99.90
21487;DHT22;10905;50.822;4.336;2023-05-01T07:03:55;16.20;99.90
21487;DHT22;10905;50.822;4.336;2023-05-01T07:06:21;16.20;99.90
21487;DHT22;10905;50.822;4.336;2023-05-01T07:08:46;16.20;99.90
21487;DHT22;10905;50.822;4.336;2023-05-01T07:11:13;16.30;99.90
21487;DHT22;10905;50.822;4.336;2023-05-01T07:13:38;16.30;99.90
21487;DHT22;10905;50.822;4.336;2023-05-01T07:16:04;16.20;99.90
21487;DHT22;10905;50.822;4.336;2023-05-01T07:18:29;16.10;99.90
21487;DHT22;10905;50.822;4.336;2023-05-01T07:20:55;16.30;99.90
21487;DHT22;10905;50.822;4.336;2023-05-01T07:23:20;16.40;99.90
21487;DHT22;10905;50.822;4.336;2023-05-01T07:25:47;16.60;99.90
21487;DHT22;10905;50.822;4.336;2023-05-01T07:28:13;16.80;99.90
21487;DHT22;10905;50.822;4.336;2023-05-01T07:30:39;16.90;99.90
21487;DHT22;10905;50.822;4.336;2023-05-01T07:33:04;16.80;99.90
21487;DHT22;10905;50.822;4.336;2023-05-01T07:35:30;16.50;99.90
21487;DHT22;10905;50.822;4.336;2023-05-01T07:37:56;16.50;99.90
21487;DHT22;10905;50.822;4.336;2023-05-01T07:40:21;16.60;99.90
21487;DHT22;10905;50.822;4.336;2023-05-01T07:42:47;16.70;99.90
21487;DHT22;10905;50.822;4.336;2023-05-01T07:45:12;16.90;99.90
21487;DHT22;10905;50.822;4.336;2023-05-01T07:47:38;16.90;99.90
21487;DHT22;10905;50.822;4.336;2023-05-01T07:50:03;17.00;99.90
21487;DHT22;10905;50.822;4.336;2023-05-01T07:52:29;17.10;99.90
21487;DHT22;10905;50.822;4.336;2023-05-01T07:54:54;17.20;99.90
21487;DHT22;10905;50.822;4.336;2023-05-01T07:57:20;17.20;99.90
21487;DHT22;10905;50.822;4.336;2023-05-01T07:59:47;17.10;99.90
21487;DHT22;10905;50.822;4.336;2023-05-01T08:02:15;17.00;99.90
21487;DHT22;10905;50.822;4.336;2023-05-01T08:04:41;17.10;99.90
21487;DHT22;10905;50.822;4.336;2023-05-01T08:07:07;17.20;99.90
21487;DHT22;10905;50.822;4.336;2023-05-01T08:09:32;17.30;99.90
21487;DHT22;10905;50.822;4.336;2023-05-01T08:11:58;17.30;99.90
21487;DHT22;10905;50.822;4.336;2023-05-01T08:14:23;17.30;99.90
21487;DHT22;10905;50.822;4.336;2023-05-01T08:16:49;17.40;99.90
21487;DHT22;10905;50.822;4.336;2023-05-01T08:19:19;17.40;99.90
21487;DHT22;10905;50.822;4.336;2023-05-01T08:21:45;17.50;99.90
21487;DHT22;10905;50.822;4.336;2023-05-01T08:24:10;17.70;99.90
21487;DHT22;10905;50.822;4.336;2023-05-01T08:26:36;17.90;99.90
21487;DHT22;10905;50.822;4.336;2023-05-01T08:29:02;17.90;99.90
21487;DHT22;10905;50.822;4.336;2023-05-01T08:31:28;17.90;99.90
21487;DHT22;10905;50.822;4.336;2023-05-01T08:33:53;18.10;99.90
21487;DHT22;10905;50.822;4.336;2023-05-01T08:36:19;18.40;99.90
21487;DHT22;10905;50.822;4.336;2023-05-01T08:38:44;18.40;99.90
21487;DHT22;10905;50.822;4.336;2023-05-01T08:41:14;18.50;99.90
21487;DHT22;10905;50.822;4.336;2023-05-01T08:43:40;18.50;99.90
21487;DHT22;10905;50.822;4.336;2023-05-01T08:46:06;18.70;99.90
21487;DHT22;10905;50.822;4.336;2023-05-01T08:48:34;18.80;99.90
21487;DHT22;10905;50.822;4.336;2023-05-01T08:50:59;18.60;99.90
21487;DHT22;10905;50.822;4.336;2023-05-01T08:53:26;18.50;99.90
21487;DHT22;10905;50.822;4.336;2023-05-01T08:55:53;18.40;99.90
21487;DHT22;10905;50.822;4.336;2023-05-01T08:58:20;18.00;99.90
21487;DHT22;10905;50.822;4.336;2023-05-01T09:00:46;18.10;99.90
21487;DHT22;10905;50.822;4.336;2023-05-01T09:03:12;18.20;99.90
21487;DHT22;10905;50.822;4.336;2023-05-01T09:05:38;18.20;99.90
21487;DHT22;10905;50.822;4.336;2023-05-01T09:08:04;18.10;99.90
21487;DHT22;10905;50.822;4.336;2023-05-01T09:10:29;17.90;99.90
21487;DHT22;10905;50.822;4.336;2023-05-01T09:12:56;17.90;99.90
21487;DHT22;10905;50.822;4.336;2023-05-01T09:15:26;17.90;99.90
21487;DHT22;10905;50.822;4.336;2023-05-01T09:17:55;17.90;99.90
21487;DHT22;10905;50.822;4.336;2023-05-01T09:20:23;18.10;99.90
21487;DHT22;10905;50.822;4.336;2023-05-01T09:22:50;18.00;99.90
21487;DHT22;10905;50.822;4.336;2023-05-01T09:25:16;18.00;99.90
21487;DHT22;10905;50.822;4.336;2023-05-01T09:27:42;18.20;99.90
21487;DHT22;10905;50.822;4.336;2023-05-01T09:30:08;18.20;99.90
21487;DHT22;10905;50.822;4.336;2023-05-01T09:32:34;18.20;99.90
21487;DHT22;10905;50.822;4.336;2023-05-01T09:35:13;18.30;99.90
21487;DHT22;10905;50.822;4.336;2023-05-01T09:37:39;18.40;99.90
21487;DHT22;10905;50.822;4.336;2023-05-01T09:42:34;18.70;99.90
21487;DHT22;10905;50.822;4.336;2023-05-01T09:45:00;18.80;99.90
21487;DHT22;10905;50.822;4.336;2023-05-01T09:47:28;18.80;99.90
21487;DHT22;10905;50.822;4.336;2023-05-01T09:49:54;18.70;99.90
21487;DHT22;10905;50.822;4.336;2023-05-01T09:52:19;18.80;99.90
21487;DHT22;10905;50.822;4.336;2023-05-01T09:54:45;19.00;99.90
21487;DHT22;10905;50.822;4.336;2023-05-01T09:57:11;18.80;99.90
21487;DHT22;10905;50.822;4.336;2023-05-01T09:59:36;18.60;99.90
21487;DHT22;10905;50.822;4.336;2023-05-01T10:02:03;18.80;99.90
21487;DHT22;10905;50.822;4.336;2023-05-01T10:04:32;18.70;99.90
21487;DHT22;10905;50.822;4.336;2023-05-01T10:06:59;18.60;99.90
21487;DHT22;10905;50.822;4.336;2023-05-01T10:09:28;18.70;99.90
21487;DHT22;10905;50.822;4.336;2023-05-01T10:11:54;18.40;99.90
21487;DHT22;10905;50.822;4.336;2023-05-01T10:14:21;18.70;99.90
21487;DHT22;10905;50.822;4.336;2023-05-01T10:16:48;18.90;99.90
21487;DHT22;10905;50.822;4.336;2023-05-01T10:19:15;18.90;99.90
21487;DHT22;10905;50.822;4.336;2023-05-01T10:21:41;18.90;99.90
21487;DHT22;10905;50.822;4.336;2023-05-01T10:24:07;19.00;99.90
21487;DHT22;10905;50.822;4.336;2023-05-01T10:26:34;18.90;99.90
21487;DHT22;10905;50.822;4.336;2023-05-01T10:29:01;18.60;99.90
21487;DHT22;10905;50.822;4.336;2023-05-01T10:31:27;18.70;99.90
21487;DHT22;10905;50.822;4.336;2023-05-01T10:33:54;18.90;99.90
21487;DHT22;10905;50.822;4.336;2023-05-01T10:36:20;19.20;99.90
21487;DHT22;10905;50.822;4.336;2023-05-01T10:38:49;19.40;99.90
21487;DHT22;10905;50.822;4.336;2023-05-01T10:41:14;19.50;99.90
21487;DHT22;10905;50.822;4.336;2023-05-01T10:43:41;19.50;99.90
21487;DHT22;10905;50.822;4.336;2023-05-01T10:51:07;18.60;99.90
21487;DHT22;10905;50.822;4.336;2023-05-01T10:53:39;18.50;99.90
21487;DHT22;10905;50.822;4.336;2023-05-01T10:56:39;18.60;99.90
21487;DHT22;10905;50.822;4.336;2023-05-01T11:01:26;19.10;99.90
21487;DHT22;10905;50.822;4.336;2023-05-01T11:03:52;18.90;99.90
21487;DHT22;10905;50.822;4.336;2023-05-01T11:06:17;19.00;99.90
21487;DHT22;10905;50.822;4.336;2023-05-01T11:08:43;19.10;99.90
21487;DHT22;10905;50.822;4.336;2023-05-01T11:13:57;19.40;99.90
21487;DHT22;10905;50.822;4.336;2023-05-01T11:21:29;19.50;99.90
21487;DHT22;10905;50.822;4.336;2023-05-01T11:24:04;19.70;99.90
21487;DHT22;10905;50.822;4.336;2023-05-01T11:26:30;20.00;99.90
21487;DHT22;10905;50.822;4.336;2023-05-01T11:28:57;20.10;99.90
21487;DHT22;10905;50.822;4.336;2023-05-01T11:31:23;20.00;99.90
21487;DHT22;10905;50.822;4.336;2023-05-01T11:33:49;19.70;99.90
21487;DHT22;10905;50.822;4.336;2023-05-01T11:36:14;19.30;99.90
21487;DHT22;10905;50.822;4.336;2023-05-01T11:38:49;19.30;99.90
21487;DHT22;10905;50.822;4.336;2023-05-01T11:41:18;19.30;99.90
21487;DHT22;10905;50.822;4.336;2023-05-01T11:43:53;19.50;99.90
21487;DHT22;10905;50.822;4.336;2023-05-01T11:46:24;19.50;99.90
21487;DHT22;10905;50.822;4.336;2023-05-01T11:48:52;19.20;99.90
21487;DHT22;10905;50.822;4.336;2023-05-01T11:51:17;19.10;99.90
21487;DHT22;10905;50.822;4.336;2023-05-01T11:53:56;19.40;99.90
21487;DHT22;10905;50.822;4.336;2023-05-01T11:56:22;19.60;99.90
21487;DHT22;10905;50.822;4.336;2023-05-01T11:58:48;19.80;99.90
21487;DHT22;10905;50.822;4.336;2023-05-01T12:01:14;19.70;99.90
21487;DHT22;10905;50.822;4.336;2023-05-01T12:03:43;19.60;99.90
21487;DHT22;10905;50.822;4.336;2023-05-01T12:06:09;19.30;99.90
21487;DHT22;10905;50.822;4.336;2023-05-01T12:08:35;19.30;99.90
21487;DHT22;10905;50.822;4.336;2023-05-01T12:11:01;19.40;99.90
21487;DHT22;10905;50.822;4.336;2023-05-01T12:13:27;19.40;99.90
21487;DHT22;10905;50.822;4.336;2023-05-01T12:15:53;19.30;99.90
21487;DHT22;10905;50.822;4.336;2023-05-01T12:18:19;19.40;99.90
21487;DHT22;10905;50.822;4.336;2023-05-01T12:20:51;19.40;99.90
21487;DHT22;10905;50.822;4.336;2023-05-01T12:23:17;19.40;99.90
21487;DHT22;10905;50.822;4.336;2023-05-01T12:25:44;19.50;99.90
21487;DHT22;10905;50.822;4.336;2023-05-01T12:30:38;19.30;99.90
21487;DHT22;10905;50.822;4.336;2023-05-01T12:33:08;19.20;99.90
21487;DHT22;10905;50.822;4.336;2023-05-01T12:35:34;19.20;99.90
21487;DHT22;10905;50.822;4.336;2023-05-01T12:38:08;19.20;99.90
21487;DHT22;10905;50.822;4.336;2023-05-01T12:40:34;19.40;99.90
21487;DHT22;10905;50.822;4.336;2023-05-01T12:43:00;19.50;99.90
21487;DHT22;10905;50.822;4.336;2023-05-01T12:45:26;19.60;99.90
21487;DHT22;10905;50.822;4.336;2023-05-01T12:47:51;19.70;99.90
21487;DHT22;10905;50.822;4.336;2023-05-01T12:50:17;19.50;99.90
21487;DHT22;10905;50.822;4.336;2023-05-01T12:52:43;19.20;99.90
21487;DHT22;10905;50.822;4.336;2023-05-01T12:55:09;19.10;99.90
21487;DHT22;10905;50.822;4.336;2023-05-01T12:57:49;19.00;99.90
21487;DHT22;10905;50.822;4.336;2023-05-01T13:00:15;18.90;99.90
21487;DHT22;10905;50.822;4.336;2023-05-01T13:02:41;18.70;99.90
21487;DHT22;10905;50.822;4.336;2023-05-01T13:07:32;18.60;99.90
21487;DHT22;10905;50.822;4.336;2023-05-01T13:09:58;18.60;99.90
21487;DHT22;10905;50.822;4.336;2023-05-01T13:12:24;18.80;99.90
21487;DHT22;10905;50.822;4.336;2023-05-01T13:14:50;18.80;99.90
21487;DHT22;10905;50.822;4.336;2023-05-01T13:19:52;18.70;99.90
21487;DHT22;10905;50.822;4.336;2023-05-01T13:22:26;18.70;99.90
21487;DHT22;10905;50.822;4.336;2023-05-01T13:24:53;18.90;99.90
21487;DHT22;10905;50.822;4.336;2023-05-01T13:27:19;18.90;99.90
21487;DHT22;10905;50.822;4.336;2023-05-01T13:29:50;19.20;99.90
21487;DHT22;10905;50.822;4.336;2023-05-01T13:32:17;19.10;99.90
21487;DHT22;10905;50.822;4.336;2023-05-01T13:34:42;19.30;99.90
21487;DHT22;10905;50.822;4.336;2023-05-01T13:37:11;19.30;99.90
21487;DHT22;10905;50.822;4.336;2023-05-01T13:39:40;19.30;99.90
21487;DHT22;10905;50.822;4.336;2023-05-01T13:42:05;19.40;99.90
21487;DHT22;10905;50.822;4.336;2023-05-01T13:44:32;19.40;99.90
21487;DHT22;10905;50.822;4.336;2023-05-01T13:47:06;19.40;99.90
21487;DHT22;10905;50.822;4.336;2023-05-01T13:49:32;19.40;99.90
21487;DHT22;10905;50.822;4.336;2023-05-01T13:51:57;19.60;99.90
21487;DHT22;10905;50.822;4.336;2023-05-01T13:54:23;19.60;99.90
21487;DHT22;10905;50.822;4.336;2023-05-01T13:56:48;19.60;99.90
21487;DHT22;10905;50.822;4.336;2023-05-01T13:59:14;19.60;99.90
21487;DHT22;10905;50.822;4.336;2023-05-01T14:01:40;19.60;99.90
21487;DHT22;10905;50.822;4.336;2023-05-01T14:04:15;19.40;99.90
21487;DHT22;10905;50.822;4.336;2023-05-01T14:06:42;19.10;99.90
21487;DHT22;10905;50.822;4.336;2023-05-01T14:09:08;19.10;99.90
21487;DHT22;10905;50.822;4.336;2023-05-01T14:11:39;19.30;99.90
21487;DHT22;10905;50.822;4.336;2023-05-01T14:14:05;19.30;99.90
21487;DHT22;10905;50.822;4.336;2023-05-01T14:16:31;19.40;99.90
21487;DHT22;10905;50.822;4.336;2023-05-01T14:18:57;19.60;99.90
21487;DHT22;10905;50.822;4.336;2023-05-01T14:21:23;19.60;99.90
21487;DHT22;10905;50.822;4.336;2023-05-01T14:23:50;19.60;99.90
21487;DHT22;10905;50.822;4.336;2023-05-01T14:26:17;19.60;99.90
21487;DHT22;10905;50.822;4.336;2023-05-01T14:28:43;19.50;99.90
21487;DHT22;10905;50.822;4.336;2023-05-01T14:31:31;19.10;99.90
21487;DHT22;10905;50.822;4.336;2023-05-01T14:33:57;18.90;99.90
21487;DHT22;10905;50.822;4.336;2023-05-01T14:36:23;18.80;99.90
21487;DHT22;10905;50.822;4.336;2023-05-01T14:38:49;18.70;99.90
21487;DHT22;10905;50.822;4.336;2023-05-01T14:41:18;18.80;99.90
21487;DHT22;10905;50.822;4.336;2023-05-01T14:43:46;19.10;99.90
21487;DHT22;10905;50.822;4.336;2023-05-01T14:46:16;19.50;99.90
21487;DHT22;10905;50.822;4.336;2023-05-01T14:48:46;19.80;99.90
21487;DHT22;10905;50.822;4.336;2023-05-01T14:51:14;20.00;99.90
21487;DHT22;10905;50.822;4.336;2023-05-01T14:53:43;20.00;99.90
21487;DHT22;10905;50.822;4.336;2023-05-01T14:56:08;20.00;99.90
21487;DHT22;10905;50.822;4.336;2023-05-01T14:58:34;20.00;99.90
21487;DHT22;10905;50.822;4.336;2023-05-01T15:01:00;20.20;99.90
21487;DHT22;10905;50.822;4.336;2023-05-01T15:03:26;19.90;99.90
21487;DHT22;10905;50.822;4.336;2023-05-01T15:05:52;19.70;99.90
21487;DHT22;10905;50.822;4.336;2023-05-01T15:08:18;19.30;99.90
21487;DHT22;10905;50.822;4.336;2023-05-01T15:10:44;19.20;99.90
21487;DHT22;10905;50.822;4.336;2023-05-01T15:13:09;19.10;99.90
21487;DHT22;10905;50.822;4.336;2023-05-01T15:15:35;19.10;99.90
21487;DHT22;10905;50.822;4.336;2023-05-01T15:18:01;19.20;99.90
21487;DHT22;10905;50.822;4.336;2023-05-01T15:20:28;18.90;99.90
21487;DHT22;10905;50.822;4.336;2023-05-01T15:22:54;18.80;99.90
21487;DHT22;10905;50.822;4.336;2023-05-01T15:25:20;18.70;99.90
21487;DHT22;10905;50.822;4.336;2023-05-01T15:27:45;18.70;99.90
21487;DHT22;10905;50.822;4.336;2023-05-01T15:30:11;18.70;99.90
21487;DHT22;10905;50.822;4.336;2023-05-01T15:32:37;18.90;99.90
21487;DHT22;10905;50.822;4.336;2023-05-01T15:35:03;19.00;99.90
21487;DHT22;10905;50.822;4.336;2023-05-01T15:37:29;19.00;99.90
21487;DHT22;10905;50.822;4.336;2023-05-01T15:39:55;18.80;99.90
21487;DHT22;10905;50.822;4.336;2023-05-01T15:42:20;18.90;99.90
21487;DHT22;10905;50.822;4.336;2023-05-01T15:44:47;19.00;99.90
21487;DHT22;10905;50.822;4.336;2023-05-01T15:47:13;19.00;99.90
21487;DHT22;10905;50.822;4.336;2023-05-01T15:49:38;19.00;99.90
21487;DHT22;10905;50.822;4.336;2023-05-01T15:52:04;19.00;99.90
21487;DHT22;10905;50.822;4.336;2023-05-01T15:54:30;19.00;99.90
21487;DHT22;10905;50.822;4.336;2023-05-01T15:56:55;19.10;99.90
21487;DHT22;10905;50.822;4.336;2023-05-01T15:59:21;19.00;99.90
21487;DHT22;10905;50.822;4.336;2023-05-01T16:01:47;19.00;99.90
21487;DHT22;10905;50.822;4.336;2023-05-01T16:04:12;18.90;99.90